Time;durP1;ratioP1;P1;durP2;ratioP2;P2;SDS_P1;SDS_P2;PMS_P1;PMS_P2;Temp;Humidity;BMP_temperature;BMP_pressure;BME280_temperature;BME280_humidity;BME280_pressure;Samples;Min_cycle;Max_cycle;Signal;HPM_P1;HPM_P2
2022/01/19 00:00:36;;;;;;;266.58;41.25;;;5.00;99.90;;;;;;5080549;28;20044;-75
2022/01/19 00:03:02;;;;;;;328.50;47.47;;;4.90;99.90;;;;;;5083621;28;20046;-75
2022/01/19 00:05:27;;;;;;;336.92;51.85;;;4.90;99.90;;;;;;5102842;28;20144;-75
2022/01/19 00:07:53;;;;;;;285.38;43.92;;;4.80;99.90;;;;;;5089628;28;20441;-73
2022/01/19 00:10:26;;;;;;;287.63;47.13;;;4.80;99.90;;;;;;5089021;28;20379;-72
2022/01/19 00:12:54;;;;;;;296.27;44.20;;;4.80;99.90;;;;;;5088544;28;20054;-74
2022/01/19 00:15:21;;;;;;;303.60;50.47;;;4.80;99.90;;;;;;5089275;28;20443;-70
2022/01/19 00:17:46;;;;;;;323.25;48.40;;;4.80;99.90;;;;;;5076763;28;20044;-71
2022/01/19 00:20:12;;;;;;;298.77;44.60;;;4.70;99.90;;;;;;5093741;28;20127;-74
2022/01/19 00:22:38;;;;;;;276.10;42.00;;;4.80;99.90;;;;;;5102424;28;20394;-72
2022/01/19 00:25:07;;;;;;;283.08;41.45;;;4.70;99.90;;;;;;5088987;28;20036;-71
2022/01/19 00:27:34;;;;;;;275.55;39.38;;;4.80;99.90;;;;;;5089403;28;20040;-72
2022/01/19 00:29:59;;;;;;;271.52;40.58;;;4.80;99.90;;;;;;5084639;28;20072;-73
2022/01/19 00:32:25;;;;;;;306.65;42.17;;;4.70;99.90;;;;;;5089135;28;20533;-72
2022/01/19 00:34:51;;;;;;;290.23;40.90;;;4.80;99.90;;;;;;5078620;28;20055;-74
2022/01/19 00:37:17;;;;;;;303.05;45.80;;;4.70;99.90;;;;;;5089228;28;20050;-71
2022/01/19 00:39:42;;;;;;;332.95;50.22;;;4.70;99.90;;;;;;5089153;28;20084;-71
2022/01/19 00:42:08;;;;;;;316.13;44.25;;;4.60;99.90;;;;;;5085907;28;20328;-75
2022/01/19 00:44:33;;;;;;;313.42;42.45;;;4.60;99.90;;;;;;5081406;28;20040;-74
2022/01/19 00:46:59;;;;;;;316.95;42.50;;;4.60;99.90;;;;;;5069549;28;20102;-75
2022/01/19 00:49:25;;;;;;;325.65;44.17;;;4.60;99.90;;;;;;5078069;28;20445;-74
2022/01/19 00:51:50;;;;;;;278.17;39.50;;;4.60;99.90;;;;;;5091708;28;20042;-70
2022/01/19 00:54:16;;;;;;;281.75;39.78;;;4.60;99.90;;;;;;5083718;28;20052;-70
2022/01/19 00:56:42;;;;;;;281.63;37.25;;;4.50;99.90;;;;;;5104723;28;20502;-71
2022/01/19 00:59:07;;;;;;;320.25;41.47;;;4.40;99.90;;;;;;5066788;28;20041;-72
2022/01/19 01:01:33;;;;;;;246.50;37.00;;;4.40;99.90;;;;;;5075138;28;20039;-73
2022/01/19 01:03:58;;;;;;;267.20;37.95;;;4.40;99.90;;;;;;5088905;28;20044;-73
2022/01/19 01:06:24;;;;;;;310.80;37.55;;;4.40;99.90;;;;;;5085297;28;20398;-73
2022/01/19 01:08:49;;;;;;;297.15;40.90;;;4.40;99.90;;;;;;5088134;28;20189;-73
2022/01/19 01:11:17;;;;;;;270.92;36.58;;;4.40;99.90;;;;;;5092162;28;20059;-74
2022/01/19 01:16:50;;;;;;;277.30;39.47;;;4.30;99.90;;;;;;5092482;28;20056;-74
2022/01/19 01:19:16;;;;;;;;;;;4.30;99.90;;;;;;5089519;28;20044;-74
2022/01/19 01:21:42;;;;;;;249.70;35.15;;;4.40;99.90;;;;;;5072613;28;19927;-75
2022/01/19 01:24:07;;;;;;;304.98;40.88;;;4.30;99.90;;;;;;5089086;28;20051;-75
2022/01/19 01:26:33;;;;;;;280.02;39.63;;;4.30;99.90;;;;;;5088144;28;20033;-75
2022/01/19 01:28:58;;;;;;;314.77;39.70;;;4.30;99.90;;;;;;5072078;28;20124;-75
2022/01/19 01:31:24;;;;;;;313.40;41.88;;;4.30;99.90;;;;;;5070813;28;20033;-75
2022/01/19 01:33:50;;;;;;;263.17;39.28;;;4.40;99.90;;;;;;5087285;28;20044;-74
2022/01/19 01:36:15;;;;;;;299.17;41.00;;;4.30;99.90;;;;;;5083275;28;20051;-74
2022/01/19 01:38:41;;;;;;;345.67;42.50;;;4.40;99.90;;;;;;5084833;28;20038;-73
2022/01/19 01:41:12;;;;;;;334.60;42.25;;;4.30;99.90;;;;;;5072440;28;20048;-73
2022/01/19 01:43:37;;;;;;;320.42;43.05;;;4.40;99.90;;;;;;5089246;28;20036;-72
2022/01/19 01:46:06;;;;;;;326.35;45.63;;;4.40;99.90;;;;;;5087188;28;20089;-72
2022/01/19 01:48:35;;;;;;;302.30;41.13;;;4.40;99.90;;;;;;5105201;28;20098;-72
2022/01/19 01:53:44;;;;;;;251.70;39.63;;;4.30;99.90;;;;;;5074882;28;20075;-72
2022/01/19 01:56:13;;;;;;;270.58;41.92;;;4.30;99.90;;;;;;5095803;28;20067;-71
2022/01/19 01:58:43;;;;;;;265.80;39.78;;;4.20;99.90;;;;;;5087176;28;20130;-72
2022/01/19 02:01:10;;;;;;;331.73;42.50;;;4.30;99.90;;;;;;5088560;28;20048;-73
2022/01/19 02:03:38;;;;;;;334.27;42.53;;;4.20;99.90;;;;;;5091713;28;20051;-72
2022/01/19 02:07:13;;;;;;;275.85;41.20;;;4.30;99.90;;;;;;5074615;28;20426;-71
2022/01/19 02:09:01;;;;;;;307.00;40.55;;;4.20;99.90;;;;;;5080110;28;20044;-72
2022/01/19 02:23:22;;;;;;;322.35;43.03;;;4.10;99.90;;;;;;5086031;28;20692;-74
2022/01/19 02:25:54;;;;;;;356.35;44.80;;;4.00;99.90;;;;;;5073621;28;20092;-75
2022/01/19 02:31:35;;;;;;;333.02;43.78;;;4.00;99.90;;;;;;5071142;28;20054;-72
2022/01/19 02:36:49;;;;;;;296.92;43.33;;;4.00;99.90;;;;;;5082545;28;20051;-73
2022/01/19 02:42:04;;;;;;;323.88;46.72;;;4.10;99.90;;;;;;5077742;28;20514;-72
2022/01/19 02:49:49;;;;;;;350.88;47.10;;;4.00;99.90;;;;;;5095524;28;20033;-72
2022/01/19 02:52:16;;;;;;;427.55;48.70;;;3.90;99.90;;;;;;5089407;28;20386;-72
2022/01/19 02:54:42;;;;;;;439.65;50.00;;;3.90;99.90;;;;;;5083212;28;20098;-73
2022/01/19 02:57:11;;;;;;;332.10;47.53;;;3.80;99.90;;;;;;5090475;28;20498;-72
2022/01/19 03:06:15;;;;;;;332.42;47.15;;;3.90;99.90;;;;;;5060984;28;20160;-73
2022/01/19 03:10:41;;;;;;;441.60;51.13;;;3.80;99.90;;;;;;5084849;28;20087;-74
2022/01/19 03:13:06;;;;;;;512.03;53.30;;;3.90;99.90;;;;;;5062433;28;20060;-75
2022/01/19 03:15:32;;;;;;;399.52;50.65;;;3.80;99.90;;;;;;5090070;28;20059;-75
2022/01/19 03:17:59;;;;;;;276.95;45.45;;;3.80;99.90;;;;;;5077789;28;20078;-73
2022/01/19 03:20:26;;;;;;;327.63;45.80;;;3.80;99.90;;;;;;5052744;28;20238;-72
2022/01/19 03:25:18;;;;;;;264.83;43.92;;;3.80;99.90;;;;;;5070310;28;20054;-73
2022/01/19 03:27:46;;;;;;;294.40;44.00;;;3.70;99.90;;;;;;5079539;28;20111;-72
2022/01/19 03:30:12;;;;;;;533.70;55.20;;;3.70;99.90;;;;;;5086445;28;20128;-73
2022/01/19 03:32:38;;;;;;;419.85;48.72;;;3.70;99.90;;;;;;5078375;28;20040;-72
2022/01/19 03:35:06;;;;;;;422.98;49.22;;;3.60;99.90;;;;;;5069756;28;20045;-71
2022/01/19 03:37:31;;;;;;;240.25;42.65;;;3.60;99.90;;;;;;5086334;28;20048;-71
2022/01/19 03:39:57;;;;;;;350.23;45.63;;;3.60;99.90;;;;;;5073715;28;20078;-73
2022/01/19 03:42:22;;;;;;;255.32;42.63;;;3.50;99.90;;;;;;5102658;28;20118;-72
2022/01/19 03:44:48;;;;;;;268.20;41.92;;;3.50;99.90;;;;;;5089188;28;20065;-72
2022/01/19 03:47:14;;;;;;;382.08;47.15;;;3.50;99.90;;;;;;5076815;28;20152;-72
2022/01/19 03:49:39;;;;;;;387.63;46.75;;;3.40;99.90;;;;;;5078858;28;20048;-72
2022/01/19 03:52:06;;;;;;;346.85;45.13;;;3.40;99.90;;;;;;5085594;28;20086;-73
2022/01/19 03:54:34;;;;;;;416.83;49.30;;;3.40;99.90;;;;;;5088927;28;20479;-75
2022/01/19 03:57:00;;;;;;;464.95;48.67;;;3.30;99.90;;;;;;5086543;28;20384;-75
2022/01/19 03:59:26;;;;;;;455.48;47.33;;;3.30;99.90;;;;;;5082957;28;20098;-75
2022/01/19 04:01:53;;;;;;;467.38;48.22;;;3.20;99.90;;;;;;5081654;28;20082;-74
2022/01/19 04:09:41;;;;;;;290.83;41.50;;;3.10;99.90;;;;;;5087191;28;20429;-75
2022/01/19 04:12:09;;;;;;;278.40;40.97;;;3.00;99.90;;;;;;5083452;28;20410;-74
2022/01/19 04:14:35;;;;;;;280.88;39.88;;;2.90;99.90;;;;;;5085913;28;20097;-75
2022/01/19 04:17:03;;;;;;;339.50;44.50;;;2.90;99.90;;;;;;5077341;28;20040;-75
2022/01/19 04:19:42;;;;;;;326.77;43.38;;;2.90;99.90;;;;;;5101190;28;20418;-76
2022/01/19 04:22:11;;;;;;;567.17;52.60;;;2.90;99.90;;;;;;5088446;28;20084;-76
2022/01/19 04:24:37;;;;;;;611.30;56.28;;;2.80;99.90;;;;;;5089383;28;20075;-75
2022/01/19 04:29:51;;;;;;;338.00;45.30;;;2.70;99.90;;;;;;5085766;28;20062;-75
2022/01/19 04:32:27;;;;;;;311.33;41.05;;;2.70;99.90;;;;;;5074086;28;20387;-75
2022/01/19 04:34:53;;;;;;;373.67;43.85;;;2.60;99.90;;;;;;5094762;28;20044;-75
2022/01/19 04:45:55;;;;;;;737.30;59.22;;;2.60;99.90;;;;;;5080258;28;20102;-76
2022/01/19 04:48:36;;;;;;;416.55;47.45;;;2.60;99.90;;;;;;5099521;28;20047;-75
2022/01/19 05:02:34;;;;;;;621.28;56.17;;;2.70;99.90;;;;;;5095898;28;20131;-76
2022/01/19 05:08:12;;;;;;;402.80;50.58;;;2.70;99.90;;;;;;5034559;28;20404;-76
2022/01/19 05:15:51;;;;;;;366.77;49.17;;;2.80;99.90;;;;;;5082230;28;20419;-75
2022/01/19 05:18:17;;;;;;;359.55;50.38;;;2.80;99.90;;;;;;5077757;28;20491;-76
2022/01/19 05:20:45;;;;;;;364.55;49.38;;;2.80;99.90;;;;;;5091162;28;20044;-76
2022/01/19 05:23:11;;;;;;;352.70;50.60;;;2.90;99.90;;;;;;5090911;28;20384;-75
2022/01/19 05:25:36;;;;;;;386.52;51.83;;;2.90;99.90;;;;;;5086088;28;20061;-76
2022/01/19 05:28:02;;;;;;;295.58;47.22;;;2.90;99.90;;;;;;5071027;28;20037;-75
2022/01/19 05:30:28;;;;;;;384.08;50.50;;;3.00;99.90;;;;;;5088844;28;20039;-74
2022/01/19 05:32:54;;;;;;;331.77;49.50;;;2.90;99.90;;;;;;5090604;28;20182;-75
2022/01/19 05:35:19;;;;;;;352.73;48.55;;;2.90;99.90;;;;;;5083430;28;20047;-75
2022/01/19 05:37:45;;;;;;;297.25;45.85;;;2.90;99.90;;;;;;5074399;28;20479;-75
2022/01/19 05:40:13;;;;;;;275.00;45.42;;;3.00;99.90;;;;;;5103583;28;20044;-76
2022/01/19 05:42:39;;;;;;;298.00;45.67;;;3.00;99.90;;;;;;5088809;28;20496;-76
2022/01/19 05:45:05;;;;;;;315.33;47.60;;;2.90;99.90;;;;;;5084290;28;20125;-76
2022/01/19 05:47:31;;;;;;;272.95;44.85;;;3.00;99.90;;;;;;5076542;28;20036;-76
2022/01/19 05:49:57;;;;;;;272.52;42.45;;;3.00;99.90;;;;;;5091628;28;20044;-75
2022/01/19 05:52:23;;;;;;;288.98;47.38;;;3.00;99.90;;;;;;5092057;28;20051;-75
2022/01/19 05:54:48;;;;;;;269.75;46.03;;;3.00;99.90;;;;;;5091845;28;20086;-75
2022/01/19 05:57:14;;;;;;;277.92;47.38;;;3.00;99.90;;;;;;5078767;28;20075;-75
2022/01/19 05:59:40;;;;;;;259.83;45.40;;;3.00;99.90;;;;;;5088254;28;20599;-74
2022/01/19 06:02:06;;;;;;;260.92;46.08;;;3.10;99.90;;;;;;5085355;28;20133;-72
2022/01/19 06:04:32;;;;;;;278.40;46.70;;;3.10;99.90;;;;;;5109556;28;20040;-74
2022/01/19 06:06:57;;;;;;;274.15;47.50;;;3.10;99.90;;;;;;5078519;28;20040;-73
2022/01/19 06:10:08;;;;;;;250.52;44.00;;;3.10;99.90;;;;;;5078609;28;20033;-74
2022/01/19 06:12:13;;;;;;;260.42;46.35;;;3.10;99.90;;;;;;5067743;28;20082;-74
2022/01/19 06:14:41;;;;;;;255.10;46.65;;;3.10;99.90;;;;;;5079685;28;20111;-74
2022/01/19 06:17:08;;;;;;;242.48;43.33;;;3.10;99.90;;;;;;5084295;28;20040;-73
2022/01/19 06:19:34;;;;;;;299.23;49.92;;;3.10;99.90;;;;;;5090029;28;20032;-72
2022/01/19 06:22:00;;;;;;;251.13;46.92;;;3.10;99.90;;;;;;5089716;28;20047;-72
2022/01/19 06:24:27;;;;;;;246.80;46.50;;;3.10;99.90;;;;;;5071970;28;20123;-74
2022/01/19 06:26:53;;;;;;;250.40;46.60;;;3.20;99.90;;;;;;5054517;28;20037;-75
2022/01/19 06:29:18;;;;;;;239.43;45.67;;;3.10;99.90;;;;;;5075049;28;20035;-75
2022/01/19 06:31:44;;;;;;;256.80;50.33;;;3.20;99.90;;;;;;5090320;28;20390;-74
2022/01/19 06:34:10;;;;;;;245.32;47.00;;;3.10;99.90;;;;;;5105283;28;20036;-75
2022/01/19 06:36:35;;;;;;;267.23;47.58;;;3.10;99.90;;;;;;5091456;28;20207;-75
2022/01/19 06:39:02;;;;;;;241.38;46.58;;;3.10;99.90;;;;;;5090118;28;20074;-75
2022/01/19 06:41:28;;;;;;;252.00;49.15;;;3.10;99.90;;;;;;5091125;28;20119;-76
2022/01/19 06:43:53;;;;;;;245.00;45.65;;;3.10;99.90;;;;;;5073712;28;20115;-75
2022/01/19 06:46:19;;;;;;;252.85;48.13;;;3.10;99.90;;;;;;5088714;28;20032;-74
2022/01/19 06:48:44;;;;;;;238.93;46.28;;;3.10;99.90;;;;;;5087549;28;20039;-74
2022/01/19 06:51:10;;;;;;;251.18;47.80;;;3.00;99.90;;;;;;5089004;28;20220;-75
2022/01/19 06:53:35;;;;;;;256.85;46.55;;;3.10;99.90;;;;;;5089633;28;20040;-75
2022/01/19 06:56:01;;;;;;;236.18;46.42;;;3.10;99.90;;;;;;5075808;28;20366;-75
2022/01/19 06:58:28;;;;;;;230.73;44.90;;;3.10;99.90;;;;;;5073520;28;20036;-75
2022/01/19 07:00:54;;;;;;;219.68;44.65;;;3.10;99.90;;;;;;5093970;28;20043;-75
2022/01/19 07:03:20;;;;;;;212.60;45.03;;;3.10;99.90;;;;;;5075008;28;20147;-75
2022/01/19 07:05:46;;;;;;;240.13;43.53;;;3.10;99.90;;;;;;5057504;28;20586;-75
2022/01/19 07:08:12;;;;;;;215.55;44.25;;;3.10;99.90;;;;;;5075786;28;20354;-74
2022/01/19 07:10:37;;;;;;;233.55;46.67;;;3.10;99.90;;;;;;5085345;28;20479;-73
2022/01/19 07:13:05;;;;;;;233.80;47.00;;;3.10;99.90;;;;;;5095671;28;20539;-73
2022/01/19 07:15:31;;;;;;;211.00;43.05;;;3.10;99.90;;;;;;5080700;28;20059;-72
2022/01/19 07:17:57;;;;;;;225.52;43.15;;;3.10;99.90;;;;;;5078334;28;20087;-75
2022/01/19 07:20:23;;;;;;;218.25;42.75;;;3.10;99.90;;;;;;5063953;28;20047;-76
2022/01/19 07:22:49;;;;;;;223.95;45.22;;;3.10;99.90;;;;;;5086923;28;20051;-73
2022/01/19 07:25:16;;;;;;;225.63;45.08;;;3.20;99.90;;;;;;5079604;28;20036;-73
2022/01/19 07:27:41;;;;;;;216.43;44.58;;;3.10;99.90;;;;;;5088797;28;20040;-72
2022/01/19 07:30:08;;;;;;;197.88;42.67;;;3.20;99.90;;;;;;5088038;28;20506;-74
2022/01/19 07:32:35;;;;;;;203.15;44.35;;;3.20;99.90;;;;;;5089583;28;20048;-73
2022/01/19 07:35:03;;;;;;;208.73;43.50;;;3.10;99.90;;;;;;5089760;28;20040;-74
2022/01/19 07:37:29;;;;;;;216.07;44.25;;;3.10;99.90;;;;;;5088348;28;20039;-72
2022/01/19 07:39:54;;;;;;;208.40;43.15;;;3.10;99.90;;;;;;5093575;28;20066;-73
2022/01/19 07:42:20;;;;;;;216.95;46.40;;;3.20;99.90;;;;;;5098070;28;20040;-73
2022/01/19 07:44:46;;;;;;;218.48;44.78;;;3.20;99.90;;;;;;5092959;28;20034;-74
2022/01/19 07:47:12;;;;;;;218.00;44.33;;;3.20;99.90;;;;;;5100195;28;20037;-74
2022/01/19 07:49:37;;;;;;;211.02;43.08;;;3.20;99.90;;;;;;5068711;28;20040;-75
2022/01/19 07:52:03;;;;;;;211.00;43.38;;;3.20;99.90;;;;;;5071815;28;20040;-75
2022/01/19 07:54:29;;;;;;;224.77;44.60;;;3.10;99.90;;;;;;5087577;28;20517;-74
2022/01/19 07:56:54;;;;;;;236.95;45.13;;;3.20;99.90;;;;;;5086400;28;20364;-74
2022/01/19 07:59:20;;;;;;;208.88;44.67;;;3.20;99.90;;;;;;5073958;28;20430;-74
2022/01/19 08:01:46;;;;;;;219.98;44.42;;;3.30;99.90;;;;;;5089960;28;20071;-74
2022/01/19 08:04:11;;;;;;;199.50;44.05;;;3.20;99.90;;;;;;5081077;28;20048;-71
2022/01/19 08:06:37;;;;;;;199.68;44.03;;;3.30;99.90;;;;;;5079333;28;20079;-71
2022/01/19 08:09:04;;;;;;;205.48;43.13;;;3.30;99.90;;;;;;5072994;28;20032;-71
2022/01/19 08:11:29;;;;;;;207.25;45.25;;;3.30;99.90;;;;;;5081389;28;20040;-69
2022/01/19 08:13:55;;;;;;;210.05;43.50;;;3.30;99.90;;;;;;5074440;28;20040;-70
2022/01/19 08:16:21;;;;;;;203.88;44.67;;;3.30;99.90;;;;;;5081289;28;20357;-72
2022/01/19 08:18:47;;;;;;;187.95;44.10;;;3.30;99.90;;;;;;5077504;28;20122;-71
2022/01/19 08:21:14;;;;;;;215.73;46.60;;;3.40;99.90;;;;;;5087148;28;20119;-71
2022/01/19 08:23:40;;;;;;;186.93;43.75;;;3.40;99.90;;;;;;5098930;28;20115;-71
2022/01/19 08:26:06;;;;;;;203.02;45.80;;;3.40;99.90;;;;;;5092078;28;20123;-71
2022/01/19 08:28:31;;;;;;;192.88;45.83;;;3.40;99.90;;;;;;5080235;28;20475;-70
2022/01/19 08:30:57;;;;;;;189.60;45.03;;;3.40;99.90;;;;;;5074610;28;20032;-71
2022/01/19 08:33:22;;;;;;;191.27;43.80;;;3.40;99.90;;;;;;5094594;28;20039;-71
2022/01/19 08:35:48;;;;;;;195.15;43.17;;;3.40;99.90;;;;;;5082829;28;20024;-72
2022/01/19 08:38:14;;;;;;;176.70;45.50;;;3.40;99.90;;;;;;5088635;28;20549;-71
2022/01/19 08:40:39;;;;;;;193.45;44.97;;;3.40;99.90;;;;;;5079760;28;20059;-71
2022/01/19 08:43:05;;;;;;;198.05;46.33;;;3.50;99.90;;;;;;5078642;28;20032;-70
2022/01/19 08:45:32;;;;;;;191.68;44.90;;;3.50;99.90;;;;;;5084823;28;20032;-71
2022/01/19 08:47:58;;;;;;;186.70;44.50;;;3.50;99.90;;;;;;5090867;28;20039;-71
2022/01/19 08:50:23;;;;;;;195.30;46.63;;;3.50;99.90;;;;;;5086076;28;20043;-71
2022/01/19 08:52:49;;;;;;;184.77;46.03;;;3.60;99.90;;;;;;5102632;28;20494;-71
2022/01/19 08:55:16;;;;;;;205.32;48.45;;;3.60;99.90;;;;;;5069028;28;20036;-70
2022/01/19 08:57:43;;;;;;;192.05;45.47;;;3.60;99.90;;;;;;5090422;28;20047;-71
2022/01/19 09:00:12;;;;;;;183.15;42.25;;;3.60;99.90;;;;;;5072633;28;20432;-71
2022/01/19 09:02:38;;;;;;;183.02;44.67;;;3.60;99.90;;;;;;5083327;28;20475;-71
2022/01/19 09:05:05;;;;;;;173.43;45.13;;;3.70;99.90;;;;;;5089807;28;20035;-72
2022/01/19 09:07:30;;;;;;;193.95;49.42;;;3.60;99.90;;;;;;5103068;28;20036;-71
2022/01/19 09:09:56;;;;;;;188.98;45.50;;;3.60;99.90;;;;;;5090169;28;20097;-71
2022/01/19 09:12:21;;;;;;;191.38;47.00;;;3.70;99.90;;;;;;5097654;28;20036;-72
2022/01/19 09:14:47;;;;;;;207.15;48.22;;;3.70;99.90;;;;;;5080164;28;20555;-71
2022/01/19 09:17:12;;;;;;;192.18;47.72;;;3.70;99.90;;;;;;5079342;28;20445;-70
2022/01/19 09:19:39;;;;;;;199.23;49.28;;;3.70;99.90;;;;;;5099564;28;20098;-71
2022/01/19 09:22:06;;;;;;;197.95;48.85;;;3.80;99.90;;;;;;5096155;28;20037;-71
2022/01/19 09:24:34;;;;;;;205.10;49.22;;;3.80;99.90;;;;;;5080748;28;20094;-72
2022/01/19 09:26:59;;;;;;;193.02;49.10;;;3.80;99.90;;;;;;5076262;28;20044;-72
2022/01/19 09:29:25;;;;;;;189.10;48.15;;;3.80;99.90;;;;;;5089927;28;20475;-71
2022/01/19 09:31:51;;;;;;;210.60;49.63;;;3.80;99.90;;;;;;5095113;28;20387;-71
2022/01/19 09:34:20;;;;;;;198.95;48.10;;;3.90;99.90;;;;;;5091117;28;20040;-71
2022/01/19 09:36:46;;;;;;;206.27;50.10;;;3.80;99.90;;;;;;5088652;28;20047;-71
2022/01/19 09:39:15;;;;;;;210.80;50.67;;;3.80;99.90;;;;;;5086945;28;20039;-71
2022/01/19 09:41:41;;;;;;;196.80;51.58;;;3.90;99.90;;;;;;5080140;28;20041;-73
2022/01/19 09:44:08;;;;;;;198.23;52.45;;;3.90;99.90;;;;;;5094389;28;20119;-72
2022/01/19 09:46:34;;;;;;;210.88;51.35;;;3.90;99.90;;;;;;5086721;28;20452;-72
2022/01/19 09:49:00;;;;;;;224.15;55.92;;;3.90;99.90;;;;;;5085494;28;20123;-72
2022/01/19 09:51:27;;;;;;;213.68;55.10;;;4.00;99.90;;;;;;5088581;28;20131;-71
2022/01/19 09:53:53;;;;;;;223.65;56.50;;;4.00;99.90;;;;;;5088379;28;20097;-72
2022/01/19 09:56:20;;;;;;;221.15;53.45;;;4.00;99.90;;;;;;5083605;28;20421;-71
2022/01/19 09:58:47;;;;;;;225.20;54.58;;;4.00;99.90;;;;;;5107780;28;20051;-71
2022/01/19 10:01:20;;;;;;;240.13;59.05;;;4.10;99.90;;;;;;5069004;28;20296;-71
2022/01/19 10:03:46;;;;;;;227.98;55.50;;;4.00;99.90;;;;;;5071746;28;20044;-71
2022/01/19 10:06:14;;;;;;;249.40;60.00;;;4.00;99.90;;;;;;5090630;28;20655;-69
2022/01/19 10:08:42;;;;;;;224.05;56.88;;;4.10;99.90;;;;;;5072338;28;20429;-72
2022/01/19 10:11:16;;;;;;;238.57;57.90;;;4.10;99.90;;;;;;5089320;28;20651;-71
2022/01/19 10:17:01;;;;;;;244.13;59.40;;;4.10;99.90;;;;;;5087174;28;20047;-71
2022/01/19 10:19:41;;;;;;;235.98;60.17;;;4.20;99.90;;;;;;5088990;28;20051;-73
2022/01/19 10:22:14;;;;;;;242.25;57.78;;;4.10;99.90;;;;;;5075413;28;20044;-71
2022/01/19 10:24:47;;;;;;;231.38;58.03;;;4.20;99.90;;;;;;5090033;28;20039;-71
2022/01/19 10:27:25;;;;;;;238.20;60.60;;;4.10;99.90;;;;;;5085953;28;20127;-73
2022/01/19 10:30:01;;;;;;;241.93;60.05;;;4.20;99.90;;;;;;5095172;28;20040;-71
2022/01/19 10:32:27;;;;;;;249.00;60.13;;;4.20;99.90;;;;;;5077088;28;20049;-72
2022/01/19 10:34:53;;;;;;;245.85;60.08;;;4.20;99.90;;;;;;5094813;28;20419;-70
2022/01/19 10:37:24;;;;;;;250.68;62.15;;;4.20;99.90;;;;;;5090097;28;20075;-71
2022/01/19 10:39:51;;;;;;;243.70;61.30;;;4.20;99.90;;;;;;5085075;28;20448;-71
2022/01/19 10:42:19;;;;;;;236.27;62.55;;;4.20;99.90;;;;;;5091198;28;20045;-70
2022/01/19 10:44:57;;;;;;;258.35;63.17;;;4.30;99.90;;;;;;5082341;28;20032;-69
2022/01/19 10:47:44;;;;;;;276.92;63.47;;;4.30;99.90;;;;;;5089442;28;20418;-71
2022/01/19 10:50:13;;;;;;;262.25;61.80;;;4.30;99.90;;;;;;5087360;28;20040;-71
2022/01/19 10:52:44;;;;;;;261.88;60.97;;;4.30;99.90;;;;;;5088261;28;20038;-71
2022/01/19 10:55:31;;;;;;;275.45;65.80;;;4.20;99.90;;;;;;5078270;28;20041;-71
2022/01/19 10:57:59;;;;;;;284.25;66.78;;;4.30;99.90;;;;;;5086988;28;20048;-72
2022/01/19 11:00:34;;;;;;;290.23;66.75;;;4.20;99.90;;;;;;5083605;28;20040;-70
2022/01/19 11:03:18;;;;;;;295.85;67.57;;;4.30;99.90;;;;;;5086889;28;20036;-72
2022/01/19 11:05:50;;;;;;;293.70;68.32;;;4.20;99.90;;;;;;5086409;28;20051;-70
2022/01/19 11:08:18;;;;;;;301.63;68.13;;;4.20;99.90;;;;;;5058419;28;20036;-71
2022/01/19 11:10:48;;;;;;;307.63;67.30;;;4.30;99.90;;;;;;5089710;28;20036;-72
2022/01/19 11:13:28;;;;;;;316.75;71.57;;;4.30;99.90;;;;;;5089688;28;20052;-71
2022/01/19 11:15:55;;;;;;;332.02;79.82;;;4.40;99.90;;;;;;5088950;28;20047;-69
2022/01/19 11:18:22;;;;;;;318.23;69.55;;;4.30;99.90;;;;;;5089368;28;20040;-71
2022/01/19 11:20:50;;;;;;;324.00;72.90;;;4.40;99.90;;;;;;5073348;28;20051;-71
2022/01/19 11:23:42;;;;;;;326.27;72.30;;;4.30;99.90;;;;;;5085729;28;20040;-73
2022/01/19 11:26:22;;;;;;;328.75;74.03;;;4.40;99.90;;;;;;5085555;28;20558;-71
2022/01/19 11:28:49;;;;;;;337.90;73.63;;;4.40;99.90;;;;;;5084474;28;20128;-70
2022/01/19 11:31:24;;;;;;;355.88;78.93;;;4.40;99.90;;;;;;5106179;28;20046;-73
2022/01/19 11:33:56;;;;;;;330.70;77.88;;;4.40;99.90;;;;;;5089024;28;20036;-69
2022/01/19 11:36:27;;;;;;;356.77;81.85;;;4.40;99.90;;;;;;5086408;28;20051;-68
2022/01/19 11:39:12;;;;;;;342.35;78.70;;;4.40;99.90;;;;;;5087667;28;20596;-67
2022/01/19 11:42:00;;;;;;;336.40;77.90;;;4.40;99.90;;;;;;5085102;28;20056;-69
2022/01/19 11:44:29;;;;;;;354.23;84.75;;;4.50;99.90;;;;;;5085786;28;20610;-67
2022/01/19 11:46:57;;;;;;;344.30;80.03;;;4.60;99.90;;;;;;5077668;28;20048;-70
2022/01/19 11:49:50;;;;;;;356.00;79.25;;;4.60;99.90;;;;;;5080411;28;20040;-70
2022/01/19 11:52:19;;;;;;;355.60;80.32;;;4.70;99.90;;;;;;5077618;28;20524;-72
2022/01/19 11:54:46;;;;;;;331.83;81.05;;;4.70;99.90;;;;;;5086421;28;20039;-67
2022/01/19 11:57:17;;;;;;;323.85;75.28;;;4.70;99.90;;;;;;5078315;28;20148;-71
2022/01/19 11:59:46;;;;;;;341.38;75.53;;;4.70;99.90;;;;;;5075131;28;20143;-68
2022/01/19 12:02:21;;;;;;;320.10;79.00;;;4.80;99.90;;;;;;5092177;28;20041;-70
2022/01/19 12:04:59;;;;;;;341.42;80.65;;;4.80;99.90;;;;;;5081665;28;20472;-69
2022/01/19 12:07:41;;;;;;;306.23;75.20;;;4.80;99.90;;;;;;5088238;28;20051;-68
2022/01/19 12:10:13;;;;;;;337.33;80.50;;;4.80;99.90;;;;;;5087477;28;20048;-70
2022/01/19 12:12:54;;;;;;;319.63;76.32;;;4.80;99.90;;;;;;5066914;28;20403;-69
2022/01/19 12:15:53;;;;;;;304.25;71.65;;;4.80;99.90;;;;;;5086220;28;20044;-69
2022/01/19 12:18:39;;;;;;;326.50;81.50;;;4.80;99.90;;;;;;5082676;28;20040;-70
2022/01/19 12:21:06;;;;;;;321.55;77.25;;;4.80;99.90;;;;;;5072370;28;20072;-69
2022/01/19 12:23:34;;;;;;;296.25;73.82;;;4.80;99.90;;;;;;5085544;28;20040;-68
2022/01/19 12:26:01;;;;;;;293.35;71.68;;;4.80;99.90;;;;;;5078343;28;20036;-71
2022/01/19 12:28:48;;;;;;;317.30;79.78;;;4.80;99.90;;;;;;5088959;28;20233;-68
2022/01/19 12:31:26;;;;;;;312.50;74.47;;;4.90;99.90;;;;;;5084892;28;20047;-69
2022/01/19 12:34:07;;;;;;;303.13;73.80;;;4.80;99.90;;;;;;5093840;28;20059;-67
2022/01/19 12:36:42;;;;;;;304.20;71.65;;;4.80;99.90;;;;;;5078514;28;20378;-68
2022/01/19 12:39:38;;;;;;;313.92;76.85;;;4.80;99.90;;;;;;5086498;28;20109;-68
2022/01/19 12:42:13;;;;;;;314.40;74.63;;;4.80;99.90;;;;;;5061644;28;20059;-69
2022/01/19 12:44:44;;;;;;;311.45;74.00;;;4.80;99.90;;;;;;5064715;28;20032;-69
2022/01/19 12:47:28;;;;;;;303.85;76.25;;;4.80;99.90;;;;;;5095879;28;20543;-69
2022/01/19 12:49:58;;;;;;;284.60;67.03;;;4.80;99.90;;;;;;5086271;28;20131;-70
2022/01/19 12:52:27;;;;;;;315.73;82.00;;;4.70;99.90;;;;;;5076460;28;20048;-72
2022/01/19 12:54:55;;;;;;;328.40;79.88;;;4.70;99.90;;;;;;5092603;28;20075;-69
2022/01/19 12:57:21;;;;;;;317.30;73.18;;;4.80;99.90;;;;;;5081119;28;20471;-67
2022/01/19 12:59:51;;;;;;;304.75;70.82;;;4.80;99.90;;;;;;5089237;28;20083;-72
2022/01/19 13:02:20;;;;;;;277.70;67.07;;;4.80;99.90;;;;;;5081704;28;20087;-70
2022/01/19 13:04:47;;;;;;;312.52;80.70;;;4.80;99.90;;;;;;5076276;28;20036;-69
2022/01/19 13:07:23;;;;;;;340.83;79.10;;;4.90;99.90;;;;;;5082780;28;20540;-69
2022/01/19 13:13:08;;;;;;;305.27;73.63;;;4.90;99.90;;;;;;5083950;28;20044;-71
2022/01/19 13:15:51;;;;;;;260.88;65.45;;;4.90;99.90;;;;;;5084328;28;20028;-67
2022/01/19 13:18:28;;;;;;;274.92;69.32;;;4.90;99.90;;;;;;5095980;28;20047;-67
2022/01/19 13:21:03;;;;;;;270.60;64.43;;;5.00;99.90;;;;;;5089105;28;20032;-68
2022/01/19 13:23:30;;;;;;;253.20;61.58;;;5.00;99.90;;;;;;5091164;28;20039;-71
2022/01/19 13:26:06;;;;;;;266.52;64.75;;;5.10;99.90;;;;;;5086130;28;20043;-69
2022/01/19 13:28:33;;;;;;;246.75;63.70;;;5.10;99.90;;;;;;5100363;28;20040;-72
2022/01/19 13:31:20;;;;;;;245.30;65.53;;;5.20;99.90;;;;;;5090730;28;20079;-70
2022/01/19 13:34:12;;;;;;;254.75;63.83;;;5.20;99.90;;;;;;5092038;28;20039;-71
2022/01/19 13:36:38;;;;;;;244.80;62.47;;;5.20;99.90;;;;;;5085280;28;20166;-72
2022/01/19 13:39:05;;;;;;;249.18;67.13;;;5.20;99.90;;;;;;5093043;28;20147;-69
2022/01/19 13:41:31;;;;;;;255.60;63.50;;;5.20;99.90;;;;;;5088548;28;20044;-71
2022/01/19 13:44:08;;;;;;;252.13;67.78;;;5.20;99.90;;;;;;5090390;28;20052;-71
2022/01/19 13:46:38;;;;;;;251.82;59.42;;;5.20;99.90;;;;;;5087349;28;20028;-68
2022/01/19 13:49:05;;;;;;;253.60;63.20;;;5.20;99.90;;;;;;5079065;28;20033;-66
2022/01/19 13:51:33;;;;;;;236.20;62.10;;;5.10;99.90;;;;;;5095513;28;20048;-68
2022/01/19 13:54:05;;;;;;;245.10;65.97;;;5.10;99.90;;;;;;5077157;28;20040;-71
2022/01/19 13:56:38;;;;;;;;;;;5.10;99.90;;;;;;5086944;28;20036;-68
2022/01/19 13:59:24;;;;;;;247.55;64.20;;;5.20;99.90;;;;;;5081166;28;19962;-69
2022/01/19 14:02:01;;;;;;;232.50;62.72;;;5.10;99.90;;;;;;5087059;28;20425;-69